createdAt,value
2022-11-03T00:01:40.809Z,10.50
2022-11-03T00:06:44.113Z,10.60
2022-11-03T00:11:47.921Z,10.50
2022-11-03T00:16:49.702Z,10.60
2022-11-03T00:21:52.602Z,10.60
2022-11-03T00:26:54.254Z,10.60
2022-11-03T00:31:55.955Z,10.70
2022-11-03T00:36:57.626Z,10.70
2022-11-03T00:41:59.270Z,10.70
2022-11-03T00:47:00.998Z,10.80
2022-11-03T00:52:02.672Z,10.80
2022-11-03T00:57:04.311Z,10.80
2022-11-03T01:02:06.037Z,10.80
2022-11-03T01:07:07.775Z,10.80
2022-11-03T01:12:15.627Z,10.80
2022-11-03T01:17:17.214Z,10.80
2022-11-03T01:22:19.797Z,10.80
2022-11-03T01:27:24.878Z,10.80
2022-11-03T01:32:26.577Z,10.80
2022-11-03T01:37:28.234Z,10.80
2022-11-03T01:42:29.949Z,10.80
2022-11-03T01:47:34.672Z,10.80
2022-11-03T01:52:52.614Z,10.80
2022-11-03T01:58:17.514Z,10.70
2022-11-03T02:03:21.440Z,10.70
2022-11-03T02:08:39.769Z,10.70
2022-11-03T02:13:41.395Z,10.60
2022-11-03T02:18:45.490Z,10.60
2022-11-03T02:24:17.741Z,10.60
2022-11-03T02:29:19.640Z,10.50
2022-11-03T02:34:39.792Z,10.50
2022-11-03T02:39:46.093Z,10.50
2022-11-03T02:44:48.950Z,10.60
2022-11-03T02:54:57.072Z,10.50
2022-11-03T03:00:07.025Z,10.40
2022-11-03T03:05:11.006Z,10.40
2022-11-03T03:10:17.471Z,10.40
2022-11-03T03:15:25.882Z,10.50
2022-11-03T03:20:53.702Z,10.40
2022-11-03T03:26:09.270Z,10.40
2022-11-03T03:31:14.239Z,10.40
2022-11-03T03:36:18.225Z,10.50
2022-11-03T03:41:22.276Z,10.50
2022-11-03T03:46:27.634Z,10.60
2022-11-03T03:51:31.240Z,10.60
2022-11-03T03:56:48.532Z,10.60
2022-11-03T04:01:50.211Z,10.50
2022-11-03T04:07:11.915Z,10.60
2022-11-03T04:12:32.443Z,10.60
2022-11-03T04:17:52.948Z,10.50
2022-11-03T04:22:54.674Z,10.50
2022-11-03T04:27:56.331Z,10.50
2022-11-03T04:32:58.050Z,10.50
2022-11-03T04:38:09.645Z,10.50
2022-11-03T04:43:15.083Z,10.50
2022-11-03T04:48:21.665Z,10.50
2022-11-03T04:53:23.530Z,10.50
2022-11-03T04:58:32.524Z,10.50
2022-11-03T05:03:36.144Z,10.40
2022-11-03T05:08:37.821Z,10.50
2022-11-03T05:13:39.461Z,10.40
2022-11-03T05:18:44.797Z,10.40
2022-11-03T05:23:54.554Z,10.40
2022-11-03T05:29:00.723Z,10.30
2022-11-03T05:34:12.072Z,10.20
2022-11-03T05:39:31.318Z,10.20
2022-11-03T05:44:40.702Z,10.20
2022-11-03T05:49:42.335Z,10.20
2022-11-03T05:54:45.114Z,10.20
2022-11-03T05:59:49.429Z,10.30
2022-11-03T06:04:50.976Z,10.30
2022-11-03T06:09:53.632Z,10.30
2022-11-03T06:14:55.264Z,10.40
2022-11-03T06:19:59.959Z,10.30
2022-11-03T06:25:23.804Z,10.40
2022-11-03T06:30:34.502Z,10.30
2022-11-03T06:35:36.358Z,10.40
2022-11-03T06:40:38.866Z,10.40
2022-11-03T06:45:57.769Z,10.40
2022-11-03T06:51:00.066Z,10.40
2022-11-03T06:56:02.544Z,10.40
2022-11-03T07:01:15.190Z,10.40
2022-11-03T07:06:21.412Z,10.40
2022-11-03T07:11:28.352Z,10.50
2022-11-03T07:16:42.558Z,10.50
2022-11-03T07:21:56.949Z,10.60
2022-11-03T07:27:35.550Z,10.60
2022-11-03T07:32:37.417Z,10.50
2022-11-03T07:37:39.104Z,10.60
2022-11-03T07:42:40.720Z,10.60
2022-11-03T07:47:44.327Z,10.80
2022-11-03T07:52:46.009Z,11.00
2022-11-03T07:57:48.152Z,11.20
2022-11-03T08:03:00.303Z,11.30
2022-11-03T08:08:01.920Z,11.50
2022-11-03T08:13:03.921Z,11.50
2022-11-03T08:18:05.809Z,11.50
2022-11-03T08:28:29.603Z,11.60
2022-11-03T08:33:35.394Z,11.60
2022-11-03T08:38:37.229Z,11.60
2022-11-03T08:43:38.891Z,11.70
2022-11-03T08:48:40.534Z,11.70
2022-11-03T08:53:42.721Z,11.80
2022-11-03T08:58:44.683Z,11.80
2022-11-03T09:03:46.546Z,11.90
2022-11-03T09:14:09.950Z,11.90
2022-11-03T09:19:11.710Z,12.00
2022-11-03T09:24:13.426Z,12.10
2022-11-03T09:29:15.090Z,12.10
2022-11-03T09:34:16.881Z,12.10
2022-11-03T09:39:18.462Z,12.20
2022-11-03T09:44:20.772Z,12.20
2022-11-03T09:49:22.497Z,12.30
2022-11-03T09:54:24.537Z,12.40
2022-11-03T09:59:26.206Z,12.50
2022-11-03T10:04:29.323Z,12.60
2022-11-03T10:09:30.972Z,12.70
2022-11-03T10:14:32.587Z,12.70
2022-11-03T10:19:34.213Z,12.80
2022-11-03T10:24:35.896Z,12.80
2022-11-03T10:29:39.915Z,12.90
2022-11-03T10:34:42.914Z,12.80
2022-11-03T10:39:45.932Z,12.80
2022-11-03T10:44:48.371Z,12.80
2022-11-03T10:49:50.038Z,12.90
2022-11-03T10:54:54.581Z,12.80
2022-11-03T10:59:56.218Z,12.90
2022-11-03T11:05:00.788Z,12.90
2022-11-03T11:10:08.421Z,12.90
2022-11-03T11:15:41.022Z,12.90
2022-11-03T11:20:42.656Z,12.90
2022-11-03T11:26:14.120Z,12.90
2022-11-03T11:31:36.100Z,12.90
2022-11-03T11:36:39.864Z,12.90
2022-11-03T11:42:11.734Z,12.90
2022-11-03T11:47:31.806Z,12.90
2022-11-03T11:52:46.015Z,12.80
2022-11-03T11:57:47.926Z,12.80
2022-11-03T12:02:50.901Z,12.80
2022-11-03T12:07:52.547Z,12.80
2022-11-03T12:12:55.578Z,12.80
2022-11-03T12:17:58.566Z,12.80
2022-11-03T12:23:00.203Z,12.80
2022-11-03T12:28:01.985Z,12.80
2022-11-03T12:33:03.888Z,12.80
2022-11-03T12:38:05.872Z,12.80
2022-11-03T12:43:07.790Z,12.80
2022-11-03T12:48:09.768Z,12.80
2022-11-03T12:53:11.410Z,12.80
2022-11-03T12:58:13.104Z,12.70
2022-11-03T13:03:14.849Z,12.70
2022-11-03T13:13:23.614Z,12.70
2022-11-03T13:18:25.367Z,12.70
2022-11-03T13:23:27.095Z,12.70
2022-11-03T13:28:28.975Z,12.80
2022-11-03T13:33:30.628Z,12.80
2022-11-03T13:38:32.383Z,12.80
2022-11-03T13:43:35.068Z,12.90
2022-11-03T13:49:33.964Z,12.90
2022-11-03T13:59:28.082Z,12.90
2022-11-03T14:04:46.989Z,12.90
2022-11-03T14:09:48.714Z,12.90
2022-11-03T14:14:50.317Z,12.90
2022-11-03T14:20:02.530Z,12.90
2022-11-03T14:25:06.248Z,12.90
2022-11-03T14:30:08.430Z,12.90
2022-11-03T14:35:10.540Z,12.90
2022-11-03T14:40:34.275Z,12.90
2022-11-03T14:45:38.417Z,12.90
2022-11-03T14:50:43.431Z,12.90
2022-11-03T14:55:47.793Z,12.70
2022-11-03T15:00:50.511Z,12.50
2022-11-03T15:05:55.572Z,12.40
2022-11-03T15:11:00.377Z,12.30
2022-11-03T15:16:02.089Z,12.20
2022-11-03T15:21:03.794Z,12.10
2022-11-03T15:26:05.640Z,12.10
2022-11-03T15:31:07.223Z,12.00
2022-11-03T15:36:09.162Z,12.00
2022-11-03T15:41:17.046Z,12.00
2022-11-03T15:46:20.309Z,12.10
2022-11-03T15:51:22.496Z,12.00
2022-11-03T15:56:24.138Z,12.10
2022-11-03T16:01:26.009Z,12.10
2022-11-03T16:06:53.870Z,12.30
2022-11-03T16:11:49.418Z,12.20
2022-11-03T16:16:51.462Z,12.20
2022-11-03T16:21:53.116Z,12.20
2022-11-03T16:26:54.823Z,12.20
2022-11-03T16:31:56.508Z,12.20
2022-11-03T16:36:58.330Z,12.20
2022-11-03T16:42:02.039Z,12.20
2022-11-03T16:47:03.780Z,12.30
2022-11-03T16:52:05.489Z,12.30
2022-11-03T16:57:08.292Z,12.30
2022-11-03T17:02:15.154Z,12.40
2022-11-03T17:07:18.055Z,12.40
2022-11-03T17:12:19.827Z,12.40
2022-11-03T17:17:21.605Z,12.40
2022-11-03T17:22:24.283Z,12.50
2022-11-03T17:27:32.922Z,12.50
2022-11-03T17:32:40.591Z,12.40
2022-11-03T17:37:42.468Z,12.50
2022-11-03T17:42:44.675Z,12.50
2022-11-03T17:47:46.606Z,12.50
2022-11-03T17:52:50.633Z,12.50
2022-11-03T17:57:52.317Z,12.50
2022-11-03T18:02:55.476Z,12.60
2022-11-03T18:07:59.099Z,12.50
2022-11-03T18:13:17.786Z,12.50
2022-11-03T18:18:34.317Z,12.50
2022-11-03T18:23:36.089Z,12.50
2022-11-03T18:28:37.774Z,12.50
2022-11-03T18:33:39.451Z,12.50
2022-11-03T18:38:43.231Z,12.50
2022-11-03T18:43:44.954Z,12.50
2022-11-03T18:48:46.558Z,12.50
2022-11-03T19:42:28.090Z,12.00
2022-11-03T19:47:34.778Z,12.00
2022-11-03T19:52:36.438Z,12.00
2022-11-03T19:57:38.085Z,12.00
2022-11-03T20:02:39.763Z,11.90
2022-11-03T20:07:43.159Z,11.80
2022-11-03T20:12:46.033Z,11.80
2022-11-03T20:17:48.757Z,11.80
2022-11-03T20:22:54.024Z,11.80
2022-11-03T20:27:57.196Z,11.70
2022-11-03T20:32:58.827Z,11.70
2022-11-03T20:38:01.596Z,11.70
2022-11-03T20:43:03.580Z,11.70
2022-11-03T20:48:11.569Z,11.70
2022-11-03T20:53:18.645Z,11.80
2022-11-03T20:58:22.467Z,11.80
2022-11-03T21:03:57.721Z,11.80
2022-11-03T21:08:52.122Z,11.80
2022-11-03T21:13:57.327Z,11.80
2022-11-03T21:19:19.526Z,11.80
2022-11-03T21:24:21.223Z,11.80
2022-11-03T21:29:33.123Z,11.80
2022-11-03T21:34:46.941Z,11.80
2022-11-03T21:39:48.584Z,11.80
2022-11-03T21:44:50.387Z,11.80
2022-11-03T21:49:55.131Z,11.80
2022-11-03T21:55:00.549Z,11.80
2022-11-03T22:00:02.156Z,11.80
2022-11-03T22:05:09.736Z,11.70
2022-11-03T22:10:12.619Z,11.80
2022-11-03T22:15:33.118Z,11.90
2022-11-03T22:20:54.771Z,11.80
2022-11-03T22:26:15.315Z,11.70
2022-11-03T22:31:35.763Z,11.70
2022-11-03T22:36:37.387Z,11.70
2022-11-03T22:42:01.941Z,11.70
2022-11-03T22:47:08.331Z,11.70
2022-11-03T22:52:10.870Z,11.70
2022-11-03T22:57:13.189Z,11.70
2022-11-03T23:02:15.113Z,11.70
2022-11-03T23:07:16.863Z,11.70
2022-11-03T23:12:18.470Z,11.60
2022-11-03T23:17:40.483Z,11.50
2022-11-03T23:22:42.315Z,11.40
2022-11-03T23:27:43.915Z,11.30
2022-11-03T23:32:45.510Z,11.20
2022-11-03T23:37:47.109Z,11.10
2022-11-03T23:42:48.739Z,11.00
2022-11-03T23:48:08.954Z,11.00
2022-11-03T23:53:10.840Z,11.00
2022-11-03T23:58:21.616Z,10.90
